createdAt,value
2018-11-20T00:05:08.203Z,-0.30
2018-11-20T00:10:51.259Z,-0.30
2018-11-20T00:16:34.326Z,-0.40
2018-11-20T00:22:17.344Z,-0.40
2018-11-20T00:28:00.405Z,-0.40
2018-11-20T00:33:43.470Z,-0.40
2018-11-20T00:39:16.738Z,-0.40
2018-11-20T00:44:59.761Z,-0.40
2018-11-20T00:50:42.811Z,-0.40
2018-11-20T00:56:44.803Z,-0.40
2018-11-20T01:02:27.698Z,-0.40
2018-11-20T01:08:10.862Z,-0.40
2018-11-20T01:13:53.951Z,-0.40
2018-11-20T01:19:37.007Z,-0.50
2018-11-20T01:25:20.003Z,-0.50
2018-11-20T01:31:03.157Z,-0.50
2018-11-20T01:36:46.474Z,-0.50
2018-11-20T01:42:29.850Z,-0.60
2018-11-20T01:48:12.872Z,-0.60
2018-11-20T01:53:55.874Z,-0.70
2018-11-20T01:59:38.892Z,-0.70
2018-11-20T02:05:22.083Z,-0.70
2018-11-20T02:11:05.008Z,-0.70
2018-11-20T02:16:49.558Z,-0.70
2018-11-20T02:22:32.555Z,-0.70
2018-11-20T02:28:15.609Z,-0.70
2018-11-20T02:33:58.641Z,-0.70
2018-11-20T02:39:41.664Z,-0.80
2018-11-20T02:45:25.080Z,-0.70
2018-11-20T02:51:08.205Z,-0.70
2018-11-20T02:56:51.190Z,-0.70
2018-11-20T03:02:34.358Z,-0.70
2018-11-20T03:08:17.405Z,-0.80
2018-11-20T03:14:00.416Z,-0.80
2018-11-20T03:19:43.415Z,-0.80
2018-11-20T03:25:45.463Z,-0.80
2018-11-20T03:31:28.470Z,-0.80
2018-11-20T03:37:11.543Z,-0.70
2018-11-20T03:42:55.446Z,-0.70
2018-11-20T03:48:38.533Z,-0.70
2018-11-20T03:54:21.640Z,-0.70
2018-11-20T04:00:04.627Z,-0.60
2018-11-20T04:05:47.643Z,-0.70
2018-11-20T04:11:30.652Z,-0.70
2018-11-20T04:17:13.682Z,-0.70
2018-11-20T04:22:56.795Z,-0.70
2018-11-20T04:28:39.781Z,-0.80
2018-11-20T04:34:22.378Z,-0.90
2018-11-20T04:39:57.783Z,-0.90
2018-11-20T04:45:33.655Z,-0.70
2018-11-20T04:51:09.221Z,-0.50
2018-11-20T04:56:50.781Z,-0.40
2018-11-20T05:02:26.550Z,-0.30
2018-11-20T05:08:02.598Z,-0.30
2018-11-20T05:13:37.774Z,-0.40
2018-11-20T05:19:13.525Z,-0.30
2018-11-20T05:24:48.791Z,-0.40
2018-11-20T05:30:24.466Z,-0.30
2018-11-20T05:35:51.935Z,-0.30
2018-11-20T05:41:26.165Z,-0.30
2018-11-20T05:46:53.681Z,-0.30
2018-11-20T05:52:27.660Z,-0.30
2018-11-20T05:58:03.540Z,-0.30
2018-11-20T06:03:39.320Z,-0.40
2018-11-20T06:09:18.005Z,-0.60
2018-11-20T06:14:53.496Z,-0.70
2018-11-20T06:20:18.709Z,-0.80
2018-11-20T06:25:54.470Z,-1.00
2018-11-20T06:31:29.680Z,-1.10
2018-11-20T06:37:04.967Z,-1.10
2018-11-20T06:42:40.935Z,-1.20
2018-11-20T06:48:16.135Z,-1.20
2018-11-20T06:53:52.085Z,-1.20
2018-11-20T06:59:27.381Z,-1.30
2018-11-20T07:05:02.842Z,-1.40
2018-11-20T07:16:32.769Z,-1.30
2018-11-20T07:22:08.299Z,-1.20
2018-11-20T07:27:43.775Z,-1.30
2018-11-20T07:33:19.306Z,-1.30
2018-11-20T07:38:54.526Z,-1.30
2018-11-20T07:44:35.752Z,-1.20
2018-11-20T07:50:11.470Z,-1.10
2018-11-20T07:55:49.715Z,-0.90
2018-11-20T08:01:30.713Z,-0.60
2018-11-20T08:07:05.566Z,-0.20
2018-11-20T08:12:40.838Z,0.10
2018-11-20T08:18:22.232Z,0.40
2018-11-20T08:23:58.035Z,0.60
2018-11-20T08:29:33.046Z,0.90
2018-11-20T08:35:08.173Z,1.00
2018-11-20T08:40:43.771Z,1.30
2018-11-20T08:46:19.339Z,1.50
2018-11-20T08:51:55.229Z,1.70
2018-11-20T08:57:33.390Z,1.90
2018-11-20T09:03:01.229Z,2.00
2018-11-20T09:08:27.629Z,2.20
2018-11-20T09:14:05.808Z,2.30
2018-11-20T09:19:41.653Z,2.40
2018-11-20T09:25:16.773Z,2.50
2018-11-20T09:30:52.259Z,2.70
2018-11-20T09:36:27.330Z,2.80
2018-11-20T09:42:05.300Z,2.80
2018-11-20T09:47:40.813Z,2.90
2018-11-20T09:53:19.635Z,2.90
2018-11-20T09:58:55.028Z,3.10
2018-11-20T10:04:30.762Z,3.10
2018-11-20T10:10:09.314Z,3.00
2018-11-20T10:15:44.441Z,3.40
2018-11-20T10:21:19.691Z,3.40
2018-11-20T10:26:52.247Z,3.50
2018-11-20T10:32:27.364Z,3.60
2018-11-20T10:38:03.122Z,3.50
2018-11-20T10:43:45.095Z,3.30
2018-11-20T10:49:20.918Z,3.30
2018-11-20T10:54:55.862Z,3.40
2018-11-20T11:00:31.456Z,3.40
2018-11-20T11:06:07.118Z,3.50
2018-11-20T11:11:42.854Z,3.80
2018-11-20T11:17:18.567Z,3.90
2018-11-20T11:22:54.438Z,4.00
2018-11-20T11:28:30.022Z,3.70
2018-11-20T11:33:58.432Z,4.00
2018-11-20T11:39:31.504Z,3.90
2018-11-20T11:45:07.353Z,4.00
2018-11-20T11:50:42.454Z,4.20
2018-11-20T11:56:18.492Z,4.30
2018-11-20T12:07:29.096Z,4.20
2018-11-20T12:13:04.539Z,4.60
2018-11-20T12:18:39.679Z,4.10
2018-11-20T12:24:15.657Z,4.30
2018-11-20T12:29:50.812Z,4.90
2018-11-20T12:35:33.088Z,5.40
2018-11-20T12:41:01.401Z,5.40
2018-11-20T12:46:37.260Z,5.00
2018-11-20T12:52:12.981Z,4.70
2018-11-20T12:57:48.747Z,4.50
2018-11-20T13:03:24.403Z,4.30
2018-11-20T13:09:00.893Z,4.00
2018-11-20T13:14:34.062Z,4.20
2018-11-20T13:20:10.637Z,4.60
2018-11-20T13:25:44.397Z,4.70
2018-11-20T13:31:20.299Z,4.60
2018-11-20T13:36:55.776Z,4.60
2018-11-20T13:42:27.750Z,4.40
2018-11-20T13:48:03.301Z,4.30
2018-11-20T13:53:38.607Z,4.20
2018-11-20T13:59:14.417Z,3.90
2018-11-20T14:04:49.769Z,4.00
2018-11-20T14:10:24.890Z,4.00
2018-11-20T14:16:00.643Z,3.80
2018-11-20T14:21:36.728Z,3.70
2018-11-20T14:27:13.394Z,3.30
2018-11-20T14:32:42.634Z,3.10
2018-11-20T14:38:18.267Z,3.00
2018-11-20T14:43:55.194Z,2.70
2018-11-20T14:49:30.590Z,2.60
2018-11-20T14:55:06.371Z,2.50
2018-11-20T15:00:41.644Z,2.50
2018-11-20T15:06:17.341Z,2.20
2018-11-20T15:11:52.494Z,2.00
2018-11-20T15:17:28.340Z,2.00
2018-11-20T15:23:10.145Z,1.70
2018-11-20T15:28:45.568Z,1.50
2018-11-20T15:34:21.322Z,1.20
2018-11-20T15:39:51.145Z,1.00
2018-11-20T15:45:27.040Z,0.70
2018-11-20T15:51:02.798Z,0.50
2018-11-20T15:56:36.818Z,0.30
2018-11-20T16:02:37.177Z,0.20
2018-11-20T16:08:12.682Z,0.00
2018-11-20T16:13:48.764Z,-0.20
2018-11-20T16:19:24.085Z,-0.20
2018-11-20T16:24:45.091Z,-0.30
2018-11-20T16:30:39.558Z,-0.50
2018-11-20T16:36:07.007Z,-0.60
2018-11-20T16:47:40.120Z,-0.80
2018-11-20T16:53:15.211Z,-0.90
2018-11-20T16:58:50.716Z,-0.80
2018-11-20T17:04:21.675Z,-0.80
2018-11-20T17:09:57.878Z,-0.80
2018-11-20T17:15:36.254Z,-0.90
2018-11-20T17:21:14.736Z,-1.00
2018-11-20T17:26:50.458Z,-1.00
2018-11-20T17:32:26.325Z,-0.90
2018-11-20T17:38:04.912Z,-1.00
2018-11-20T17:43:39.945Z,-1.20
2018-11-20T17:49:21.320Z,-1.30
2018-11-20T17:54:56.657Z,-1.20
2018-11-20T18:00:32.318Z,-1.30
2018-11-20T18:06:07.997Z,-1.40
2018-11-20T18:11:43.527Z,-1.50
2018-11-20T18:17:20.442Z,-1.50
2018-11-20T18:23:01.039Z,-1.40
2018-11-20T18:28:36.849Z,-1.30
2018-11-20T18:34:08.847Z,-1.20
2018-11-20T18:39:40.522Z,-1.20
2018-11-20T18:45:16.301Z,-1.30
2018-11-20T18:50:51.840Z,-1.30
2018-11-20T18:56:28.179Z,-1.50
2018-11-20T19:02:03.169Z,-1.30
2018-11-20T19:07:34.653Z,-1.10
2018-11-20T19:13:10.615Z,-1.00
2018-11-20T19:18:46.177Z,-1.20
2018-11-20T19:24:22.342Z,-1.20
2018-11-20T19:30:00.892Z,-1.10
2018-11-20T19:35:39.037Z,-1.10
2018-11-20T19:41:13.101Z,-1.20
2018-11-20T19:46:54.211Z,-1.30
2018-11-20T19:52:29.576Z,-1.60
2018-11-20T19:58:04.628Z,-1.60
2018-11-20T20:03:40.440Z,-1.70
2018-11-20T20:09:15.799Z,-1.70
2018-11-20T20:14:57.517Z,-1.60
2018-11-20T20:20:32.596Z,-1.70
2018-11-20T20:26:08.040Z,-1.80
2018-11-20T20:31:43.626Z,-2.00
2018-11-20T20:39:04.973Z,-2.10
2018-11-20T20:44:31.436Z,-2.10
2018-11-20T20:49:44.899Z,-2.10
2018-11-20T20:55:13.794Z,-2.10
2018-11-20T21:00:34.153Z,-2.20
2018-11-20T21:05:56.590Z,-2.20
2018-11-20T21:11:18.785Z,-2.10
2018-11-20T21:16:50.916Z,-2.20
2018-11-20T21:22:26.351Z,-2.20
2018-11-20T21:27:52.707Z,-2.30
2018-11-20T21:33:15.157Z,-2.30
2018-11-20T21:38:43.574Z,-2.20
2018-11-20T21:44:05.756Z,-2.20
2018-11-20T21:49:27.813Z,-2.30
2018-11-20T21:54:56.434Z,-2.40
2018-11-20T22:00:25.669Z,-2.40
2018-11-20T22:05:47.543Z,-2.30
2018-11-20T22:11:09.280Z,-2.20
2018-11-20T22:16:31.201Z,-2.20
2018-11-20T22:21:46.163Z,-2.30
2018-11-20T22:27:08.089Z,-2.30
2018-11-20T22:32:34.258Z,-2.30
2018-11-20T22:37:57.730Z,-2.30
2018-11-20T22:43:20.023Z,-2.30
2018-11-20T22:48:42.226Z,-2.20
2018-11-20T22:53:55.507Z,-2.30
2018-11-20T22:59:15.114Z,-2.50
2018-11-20T23:04:39.721Z,-2.60
2018-11-20T23:09:44.093Z,-2.50
2018-11-20T23:14:50.043Z,-2.40
2018-11-20T23:19:54.592Z,-2.40
2018-11-20T23:24:59.056Z,-2.40
2018-11-20T23:30:04.235Z,-2.40
2018-11-20T23:35:09.890Z,-2.30
2018-11-20T23:40:14.696Z,-2.30
2018-11-20T23:45:19.165Z,-2.20
2018-11-20T23:50:23.637Z,-2.20
2018-11-20T23:55:27.977Z,-2.20
